sensor_id;sensor_type;location;lat;lon;timestamp;P1;durP1;ratioP1;P2;durP2;ratioP2
78989;SDS011;68390;52.130;21.218;2023-03-21T00:00:34;31.23;;;17.13;;
78989;SDS011;68390;52.130;21.218;2023-03-21T00:02:59;38.45;;;20.42;;
78989;SDS011;68390;52.130;21.218;2023-03-21T00:05:25;31.95;;;18.20;;
78989;SDS011;68390;52.130;21.218;2023-03-21T00:07:50;37.83;;;19.60;;
78989;SDS011;68390;52.130;21.218;2023-03-21T00:10:16;41.35;;;21.88;;
78989;SDS011;68390;52.130;21.218;2023-03-21T00:12:42;44.50;;;21.38;;
78989;SDS011;68390;52.130;21.218;2023-03-21T00:15:08;30.92;;;15.82;;
78989;SDS011;68390;52.130;21.218;2023-03-21T00:17:35;36.90;;;20.05;;
78989;SDS011;68390;52.130;21.218;2023-03-21T00:20:04;35.65;;;17.25;;
78989;SDS011;68390;52.130;21.218;2023-03-21T00:22:32;37.75;;;19.95;;
78989;SDS011;68390;52.130;21.218;2023-03-21T00:24:59;40.28;;;20.55;;
78989;SDS011;68390;52.130;21.218;2023-03-21T00:27:25;42.22;;;21.40;;
78989;SDS011;68390;52.130;21.218;2023-03-21T00:29:51;43.50;;;22.40;;
78989;SDS011;68390;52.130;21.218;2023-03-21T00:32:18;40.78;;;21.17;;
78989;SDS011;68390;52.130;21.218;2023-03-21T00:34:45;36.63;;;19.52;;
78989;SDS011;68390;52.130;21.218;2023-03-21T00:37:10;45.40;;;23.40;;
78989;SDS011;68390;52.130;21.218;2023-03-21T00:39:38;46.45;;;23.42;;
78989;SDS011;68390;52.130;21.218;2023-03-21T00:42:04;40.38;;;20.80;;
78989;SDS011;68390;52.130;21.218;2023-03-21T00:44:29;44.53;;;22.48;;
78989;SDS011;68390;52.130;21.218;2023-03-21T00:47:00;46.13;;;24.40;;
78989;SDS011;68390;52.130;21.218;2023-03-21T00:49:27;44.88;;;21.23;;
78989;SDS011;68390;52.130;21.218;2023-03-21T00:51:57;49.20;;;22.90;;
78989;SDS011;68390;52.130;21.218;2023-03-21T00:54:27;48.55;;;23.20;;
78989;SDS011;68390;52.130;21.218;2023-03-21T00:56:53;45.78;;;22.80;;
78989;SDS011;68390;52.130;21.218;2023-03-21T00:59:18;47.85;;;22.75;;
78989;SDS011;68390;52.130;21.218;2023-03-21T01:01:43;45.60;;;22.30;;
78989;SDS011;68390;52.130;21.218;2023-03-21T01:04:10;48.40;;;23.02;;
78989;SDS011;68390;52.130;21.218;2023-03-21T01:06:39;39.72;;;19.75;;
78989;SDS011;68390;52.130;21.218;2023-03-21T01:09:06;47.30;;;22.50;;
78989;SDS011;68390;52.130;21.218;2023-03-21T01:11:35;45.22;;;22.27;;
78989;SDS011;68390;52.130;21.218;2023-03-21T01:14:01;41.92;;;21.60;;
78989;SDS011;68390;52.130;21.218;2023-03-21T01:16:26;38.22;;;19.25;;
78989;SDS011;68390;52.130;21.218;2023-03-21T01:18:51;45.60;;;22.23;;
78989;SDS011;68390;52.130;21.218;2023-03-21T01:21:17;43.67;;;21.13;;
78989;SDS011;68390;52.130;21.218;2023-03-21T01:23:43;38.55;;;20.00;;
78989;SDS011;68390;52.130;21.218;2023-03-21T01:26:10;45.40;;;21.95;;
78989;SDS011;68390;52.130;21.218;2023-03-21T01:28:36;40.45;;;18.90;;
78989;SDS011;68390;52.130;21.218;2023-03-21T01:31:03;41.83;;;20.10;;
78989;SDS011;68390;52.130;21.218;2023-03-21T01:33:30;44.97;;;20.00;;
78989;SDS011;68390;52.130;21.218;2023-03-21T01:35:56;45.05;;;20.98;;
78989;SDS011;68390;52.130;21.218;2023-03-21T01:38:22;43.78;;;19.92;;
78989;SDS011;68390;52.130;21.218;2023-03-21T01:40:48;41.40;;;20.55;;
78989;SDS011;68390;52.130;21.218;2023-03-21T01:43:30;40.38;;;19.55;;
78989;SDS011;68390;52.130;21.218;2023-03-21T01:46:44;40.13;;;20.23;;
78989;SDS011;68390;52.130;21.218;2023-03-21T01:48:59;39.95;;;19.23;;
78989;SDS011;68390;52.130;21.218;2023-03-21T01:51:29;41.50;;;19.95;;
78989;SDS011;68390;52.130;21.218;2023-03-21T01:53:58;45.30;;;20.60;;
78989;SDS011;68390;52.130;21.218;2023-03-21T01:56:28;41.85;;;19.25;;
78989;SDS011;68390;52.130;21.218;2023-03-21T01:58:59;39.05;;;19.80;;
78989;SDS011;68390;52.130;21.218;2023-03-21T02:01:29;36.00;;;17.35;;
78989;SDS011;68390;52.130;21.218;2023-03-21T02:03:56;39.03;;;19.67;;
78989;SDS011;68390;52.130;21.218;2023-03-21T02:07:04;30.90;;;16.60;;
78989;SDS011;68390;52.130;21.218;2023-03-21T02:09:17;38.85;;;18.42;;
78989;SDS011;68390;52.130;21.218;2023-03-21T02:11:45;37.58;;;19.17;;
78989;SDS011;68390;52.130;21.218;2023-03-21T02:14:13;36.90;;;19.05;;
78989;SDS011;68390;52.130;21.218;2023-03-21T02:22:20;37.72;;;19.17;;
78989;SDS011;68390;52.130;21.218;2023-03-21T02:27:58;36.17;;;18.00;;
78989;SDS011;68390;52.130;21.218;2023-03-21T02:30:42;37.53;;;17.42;;
78989;SDS011;68390;52.130;21.218;2023-03-21T02:38:31;32.90;;;17.13;;
78989;SDS011;68390;52.130;21.218;2023-03-21T02:41:51;34.38;;;17.23;;
78989;SDS011;68390;52.130;21.218;2023-03-21T02:44:04;30.58;;;16.73;;
78989;SDS011;68390;52.130;21.218;2023-03-21T02:46:40;31.30;;;16.23;;
78989;SDS011;68390;52.130;21.218;2023-03-21T02:49:26;28.60;;;14.73;;
78989;SDS011;68390;52.130;21.218;2023-03-21T02:51:58;35.28;;;17.58;;
78989;SDS011;68390;52.130;21.218;2023-03-21T02:54:26;37.50;;;16.75;;
78989;SDS011;68390;52.130;21.218;2023-03-21T02:56:54;32.55;;;16.60;;
78989;SDS011;68390;52.130;21.218;2023-03-21T02:59:22;38.83;;;17.48;;
78989;SDS011;68390;52.130;21.218;2023-03-21T03:01:51;35.72;;;16.00;;
78989;SDS011;68390;52.130;21.218;2023-03-21T03:04:18;35.30;;;16.90;;
78989;SDS011;68390;52.130;21.218;2023-03-21T03:09:29;31.23;;;17.13;;
78989;SDS011;68390;52.130;21.218;2023-03-21T03:23:27;35.35;;;17.63;;
78989;SDS011;68390;52.130;21.218;2023-03-21T03:26:05;42.97;;;18.85;;
78989;SDS011;68390;52.130;21.218;2023-03-21T03:28:38;41.88;;;19.45;;
78989;SDS011;68390;52.130;21.218;2023-03-21T03:31:08;38.50;;;19.13;;
78989;SDS011;68390;52.130;21.218;2023-03-21T03:33:39;40.05;;;21.02;;
78989;SDS011;68390;52.130;21.218;2023-03-21T03:36:11;37.90;;;20.08;;
78989;SDS011;68390;52.130;21.218;2023-03-21T03:38:39;40.50;;;20.33;;
78989;SDS011;68390;52.130;21.218;2023-03-21T03:41:08;41.03;;;19.60;;
78989;SDS011;68390;52.130;21.218;2023-03-21T03:43:39;44.00;;;21.20;;
78989;SDS011;68390;52.130;21.218;2023-03-21T03:46:13;38.53;;;20.08;;
78989;SDS011;68390;52.130;21.218;2023-03-21T03:48:51;37.63;;;19.67;;
78989;SDS011;68390;52.130;21.218;2023-03-21T03:51:25;36.10;;;19.95;;
78989;SDS011;68390;52.130;21.218;2023-03-21T03:53:56;37.47;;;19.77;;
78989;SDS011;68390;52.130;21.218;2023-03-21T03:56:26;40.75;;;20.95;;
78989;SDS011;68390;52.130;21.218;2023-03-21T03:58:52;41.13;;;21.05;;
78989;SDS011;68390;52.130;21.218;2023-03-21T04:01:18;38.40;;;19.92;;
78989;SDS011;68390;52.130;21.218;2023-03-21T04:03:45;36.75;;;20.90;;
78989;SDS011;68390;52.130;21.218;2023-03-21T04:06:13;41.05;;;20.13;;
78989;SDS011;68390;52.130;21.218;2023-03-21T04:08:39;36.20;;;18.40;;
78989;SDS011;68390;52.130;21.218;2023-03-21T04:11:05;34.00;;;18.50;;
78989;SDS011;68390;52.130;21.218;2023-03-21T04:13:30;32.45;;;17.35;;
78989;SDS011;68390;52.130;21.218;2023-03-21T04:15:57;32.88;;;17.73;;
78989;SDS011;68390;52.130;21.218;2023-03-21T04:18:23;34.78;;;17.35;;
78989;SDS011;68390;52.130;21.218;2023-03-21T04:20:48;35.03;;;17.63;;
78989;SDS011;68390;52.130;21.218;2023-03-21T04:23:15;30.67;;;15.93;;
78989;SDS011;68390;52.130;21.218;2023-03-21T04:25:43;35.45;;;19.00;;
78989;SDS011;68390;52.130;21.218;2023-03-21T04:28:09;33.97;;;17.42;;
78989;SDS011;68390;52.130;21.218;2023-03-21T04:30:35;26.95;;;15.38;;
78989;SDS011;68390;52.130;21.218;2023-03-21T04:33:00;34.08;;;17.88;;
78989;SDS011;68390;52.130;21.218;2023-03-21T04:35:26;33.72;;;18.23;;
78989;SDS011;68390;52.130;21.218;2023-03-21T04:37:52;30.70;;;16.63;;
78989;SDS011;68390;52.130;21.218;2023-03-21T04:40:18;34.60;;;16.80;;
78989;SDS011;68390;52.130;21.218;2023-03-21T04:42:44;33.70;;;16.35;;
78989;SDS011;68390;52.130;21.218;2023-03-21T04:45:11;32.50;;;17.80;;
78989;SDS011;68390;52.130;21.218;2023-03-21T04:47:38;30.90;;;16.38;;
78989;SDS011;68390;52.130;21.218;2023-03-21T04:50:03;34.20;;;18.77;;
78989;SDS011;68390;52.130;21.218;2023-03-21T04:52:29;28.67;;;15.65;;
78989;SDS011;68390;52.130;21.218;2023-03-21T04:54:54;37.53;;;18.80;;
78989;SDS011;68390;52.130;21.218;2023-03-21T04:57:20;33.90;;;17.33;;
78989;SDS011;68390;52.130;21.218;2023-03-21T04:59:45;34.28;;;18.13;;
78989;SDS011;68390;52.130;21.218;2023-03-21T05:02:11;32.63;;;18.13;;
78989;SDS011;68390;52.130;21.218;2023-03-21T05:04:37;33.28;;;18.42;;
78989;SDS011;68390;52.130;21.218;2023-03-21T05:07:03;36.40;;;19.02;;
78989;SDS011;68390;52.130;21.218;2023-03-21T05:09:29;34.50;;;18.05;;
78989;SDS011;68390;52.130;21.218;2023-03-21T05:11:54;31.48;;;18.38;;
78989;SDS011;68390;52.130;21.218;2023-03-21T05:14:21;30.85;;;17.75;;
78989;SDS011;68390;52.130;21.218;2023-03-21T05:16:49;28.73;;;16.45;;
78989;SDS011;68390;52.130;21.218;2023-03-21T05:19:27;27.48;;;15.95;;
78989;SDS011;68390;52.130;21.218;2023-03-21T05:22:01;33.63;;;17.77;;
78989;SDS011;68390;52.130;21.218;2023-03-21T05:24:28;34.67;;;18.08;;
78989;SDS011;68390;52.130;21.218;2023-03-21T05:26:55;28.42;;;15.95;;
78989;SDS011;68390;52.130;21.218;2023-03-21T05:29:26;25.63;;;14.23;;
78989;SDS011;68390;52.130;21.218;2023-03-21T05:31:52;29.27;;;17.05;;
78989;SDS011;68390;52.130;21.218;2023-03-21T05:34:18;28.27;;;16.02;;
78989;SDS011;68390;52.130;21.218;2023-03-21T05:36:43;33.10;;;17.13;;
78989;SDS011;68390;52.130;21.218;2023-03-21T05:39:08;30.83;;;17.20;;
78989;SDS011;68390;52.130;21.218;2023-03-21T05:41:34;33.85;;;17.13;;
78989;SDS011;68390;52.130;21.218;2023-03-21T05:43:59;30.80;;;18.05;;
78989;SDS011;68390;52.130;21.218;2023-03-21T05:46:25;28.90;;;15.77;;
78989;SDS011;68390;52.130;21.218;2023-03-21T05:48:50;28.13;;;15.17;;
78989;SDS011;68390;52.130;21.218;2023-03-21T05:51:16;29.48;;;16.33;;
78989;SDS011;68390;52.130;21.218;2023-03-21T05:53:42;29.15;;;14.85;;
78989;SDS011;68390;52.130;21.218;2023-03-21T05:56:08;26.02;;;15.05;;
78989;SDS011;68390;52.130;21.218;2023-03-21T05:58:33;31.00;;;16.90;;
78989;SDS011;68390;52.130;21.218;2023-03-21T06:00:59;26.77;;;14.55;;
78989;SDS011;68390;52.130;21.218;2023-03-21T06:03:25;28.55;;;15.00;;
78989;SDS011;68390;52.130;21.218;2023-03-21T06:05:50;27.65;;;14.70;;
78989;SDS011;68390;52.130;21.218;2023-03-21T06:08:16;27.77;;;15.40;;
78989;SDS011;68390;52.130;21.218;2023-03-21T06:10:41;23.23;;;13.90;;
78989;SDS011;68390;52.130;21.218;2023-03-21T06:13:07;22.85;;;13.90;;
78989;SDS011;68390;52.130;21.218;2023-03-21T06:15:32;23.85;;;14.32;;
78989;SDS011;68390;52.130;21.218;2023-03-21T06:17:57;22.02;;;12.63;;
78989;SDS011;68390;52.130;21.218;2023-03-21T06:20:23;24.27;;;13.27;;
78989;SDS011;68390;52.130;21.218;2023-03-21T06:22:48;24.02;;;14.48;;
78989;SDS011;68390;52.130;21.218;2023-03-21T06:25:16;24.58;;;13.52;;
78989;SDS011;68390;52.130;21.218;2023-03-21T06:27:41;22.83;;;12.90;;
78989;SDS011;68390;52.130;21.218;2023-03-21T06:30:07;24.45;;;12.65;;
78989;SDS011;68390;52.130;21.218;2023-03-21T06:32:33;25.52;;;13.95;;
78989;SDS011;68390;52.130;21.218;2023-03-21T06:34:58;26.48;;;14.60;;
78989;SDS011;68390;52.130;21.218;2023-03-21T06:37:24;23.13;;;12.75;;
78989;SDS011;68390;52.130;21.218;2023-03-21T06:39:51;21.65;;;12.60;;
78989;SDS011;68390;52.130;21.218;2023-03-21T06:42:16;24.83;;;15.48;;
78989;SDS011;68390;52.130;21.218;2023-03-21T06:44:42;22.85;;;13.75;;
78989;SDS011;68390;52.130;21.218;2023-03-21T06:47:07;23.67;;;15.70;;
78989;SDS011;68390;52.130;21.218;2023-03-21T06:49:33;24.58;;;14.43;;
78989;SDS011;68390;52.130;21.218;2023-03-21T06:51:58;25.33;;;14.32;;
78989;SDS011;68390;52.130;21.218;2023-03-21T06:54:24;22.58;;;14.20;;
78989;SDS011;68390;52.130;21.218;2023-03-21T06:56:49;26.60;;;15.18;;
78989;SDS011;68390;52.130;21.218;2023-03-21T06:59:15;23.95;;;14.30;;
78989;SDS011;68390;52.130;21.218;2023-03-21T07:01:40;27.50;;;15.23;;
78989;SDS011;68390;52.130;21.218;2023-03-21T07:04:07;24.67;;;13.98;;
78989;SDS011;68390;52.130;21.218;2023-03-21T07:06:32;22.05;;;12.57;;
78989;SDS011;68390;52.130;21.218;2023-03-21T07:08:58;19.23;;;11.98;;
78989;SDS011;68390;52.130;21.218;2023-03-21T07:11:23;19.87;;;12.43;;
78989;SDS011;68390;52.130;21.218;2023-03-21T07:13:49;21.15;;;11.88;;
78989;SDS011;68390;52.130;21.218;2023-03-21T07:16:16;21.00;;;12.60;;
78989;SDS011;68390;52.130;21.218;2023-03-21T07:18:44;20.95;;;11.77;;
78989;SDS011;68390;52.130;21.218;2023-03-21T07:21:10;16.95;;;12.23;;
78989;SDS011;68390;52.130;21.218;2023-03-21T07:23:35;17.02;;;11.13;;
78989;SDS011;68390;52.130;21.218;2023-03-21T07:26:02;20.42;;;11.80;;
78989;SDS011;68390;52.130;21.218;2023-03-21T07:28:28;21.38;;;12.20;;
78989;SDS011;68390;52.130;21.218;2023-03-21T07:30:57;19.73;;;12.80;;
78989;SDS011;68390;52.130;21.218;2023-03-21T07:35:51;15.13;;;9.80;;
78989;SDS011;68390;52.130;21.218;2023-03-21T07:38:18;18.92;;;10.73;;
78989;SDS011;68390;52.130;21.218;2023-03-21T07:40:45;19.65;;;11.07;;
78989;SDS011;68390;52.130;21.218;2023-03-21T07:43:12;18.38;;;11.68;;
78989;SDS011;68390;52.130;21.218;2023-03-21T07:45:38;18.02;;;10.95;;
78989;SDS011;68390;52.130;21.218;2023-03-21T07:48:04;17.55;;;10.27;;
78989;SDS011;68390;52.130;21.218;2023-03-21T07:50:30;15.77;;;9.95;;
78989;SDS011;68390;52.130;21.218;2023-03-21T07:52:55;16.58;;;10.65;;
78989;SDS011;68390;52.130;21.218;2023-03-21T07:55:21;26.30;;;10.20;;
78989;SDS011;68390;52.130;21.218;2023-03-21T07:57:49;14.05;;;9.05;;
78989;SDS011;68390;52.130;21.218;2023-03-21T08:00:16;16.42;;;10.10;;
78989;SDS011;68390;52.130;21.218;2023-03-21T08:02:56;17.88;;;10.48;;
78989;SDS011;68390;52.130;21.218;2023-03-21T08:05:23;16.67;;;10.25;;
78989;SDS011;68390;52.130;21.218;2023-03-21T08:07:50;17.27;;;9.90;;
78989;SDS011;68390;52.130;21.218;2023-03-21T08:10:15;16.23;;;9.95;;
78989;SDS011;68390;52.130;21.218;2023-03-21T08:12:42;17.40;;;10.90;;
78989;SDS011;68390;52.130;21.218;2023-03-21T08:15:08;14.95;;;9.32;;
78989;SDS011;68390;52.130;21.218;2023-03-21T08:17:34;14.30;;;9.43;;
78989;SDS011;68390;52.130;21.218;2023-03-21T08:20:05;13.65;;;9.27;;
78989;SDS011;68390;52.130;21.218;2023-03-21T08:22:33;14.43;;;8.60;;
78989;SDS011;68390;52.130;21.218;2023-03-21T08:25:00;14.63;;;9.50;;
78989;SDS011;68390;52.130;21.218;2023-03-21T08:27:26;13.73;;;9.02;;
78989;SDS011;68390;52.130;21.218;2023-03-21T08:29:51;13.95;;;8.95;;
78989;SDS011;68390;52.130;21.218;2023-03-21T08:32:17;15.57;;;9.50;;
78989;SDS011;68390;52.130;21.218;2023-03-21T08:34:43;13.50;;;8.75;;
78989;SDS011;68390;52.130;21.218;2023-03-21T08:37:09;15.63;;;8.75;;
78989;SDS011;68390;52.130;21.218;2023-03-21T08:39:34;13.18;;;8.73;;
78989;SDS011;68390;52.130;21.218;2023-03-21T08:42:00;15.88;;;9.63;;
78989;SDS011;68390;52.130;21.218;2023-03-21T08:44:25;14.35;;;8.18;;
78989;SDS011;68390;52.130;21.218;2023-03-21T08:46:51;12.95;;;7.90;;
78989;SDS011;68390;52.130;21.218;2023-03-21T08:49:16;12.63;;;7.95;;
78989;SDS011;68390;52.130;21.218;2023-03-21T08:51:41;12.27;;;7.85;;
78989;SDS011;68390;52.130;21.218;2023-03-21T08:54:16;14.55;;;8.13;;
78989;SDS011;68390;52.130;21.218;2023-03-21T08:56:43;11.65;;;7.72;;
78989;SDS011;68390;52.130;21.218;2023-03-21T08:59:08;11.90;;;7.88;;
78989;SDS011;68390;52.130;21.218;2023-03-21T09:01:34;9.38;;;6.70;;
78989;SDS011;68390;52.130;21.218;2023-03-21T09:03:59;10.45;;;7.00;;
78989;SDS011;68390;52.130;21.218;2023-03-21T09:06:25;10.13;;;6.82;;
78989;SDS011;68390;52.130;21.218;2023-03-21T09:08:51;11.05;;;6.72;;
78989;SDS011;68390;52.130;21.218;2023-03-21T09:11:17;10.10;;;7.05;;
78989;SDS011;68390;52.130;21.218;2023-03-21T09:13:42;10.00;;;6.22;;
78989;SDS011;68390;52.130;21.218;2023-03-21T09:16:08;8.50;;;6.30;;
78989;SDS011;68390;52.130;21.218;2023-03-21T09:18:33;9.07;;;6.93;;
78989;SDS011;68390;52.130;21.218;2023-03-21T09:21:20;13.13;;;8.68;;
78989;SDS011;68390;52.130;21.218;2023-03-21T09:23:47;13.43;;;8.23;;
78989;SDS011;68390;52.130;21.218;2023-03-21T09:26:17;12.13;;;8.60;;
78989;SDS011;68390;52.130;21.218;2023-03-21T09:28:43;12.32;;;8.25;;
78989;SDS011;68390;52.130;21.218;2023-03-21T09:31:10;11.60;;;7.80;;
78989;SDS011;68390;52.130;21.218;2023-03-21T09:33:38;10.93;;;7.80;;
78989;SDS011;68390;52.130;21.218;2023-03-21T09:36:05;11.60;;;7.85;;
78989;SDS011;68390;52.130;21.218;2023-03-21T09:38:36;10.80;;;7.38;;
78989;SDS011;68390;52.130;21.218;2023-03-21T09:41:15;10.10;;;7.53;;
78989;SDS011;68390;52.130;21.218;2023-03-21T09:46:26;10.02;;;7.00;;
78989;SDS011;68390;52.130;21.218;2023-03-21T09:49:26;10.50;;;7.38;;
78989;SDS011;68390;52.130;21.218;2023-03-21T09:51:57;10.13;;;6.32;;
78989;SDS011;68390;52.130;21.218;2023-03-21T09:57:18;9.90;;;7.20;;
78989;SDS011;68390;52.130;21.218;2023-03-21T09:59:49;10.00;;;6.82;;
78989;SDS011;68390;52.130;21.218;2023-03-21T10:02:38;8.23;;;6.45;;
78989;SDS011;68390;52.130;21.218;2023-03-21T10:05:23;9.45;;;6.47;;
78989;SDS011;68390;52.130;21.218;2023-03-21T10:07:58;9.63;;;6.60;;
78989;SDS011;68390;52.130;21.218;2023-03-21T10:10:37;10.75;;;7.13;;
78989;SDS011;68390;52.130;21.218;2023-03-21T10:13:16;8.93;;;6.22;;
78989;SDS011;68390;52.130;21.218;2023-03-21T10:15:46;9.45;;;6.88;;
78989;SDS011;68390;52.130;21.218;2023-03-21T10:18:17;10.27;;;6.85;;
78989;SDS011;68390;52.130;21.218;2023-03-21T10:20:46;10.00;;;6.78;;
78989;SDS011;68390;52.130;21.218;2023-03-21T10:23:14;10.60;;;5.95;;
78989;SDS011;68390;52.130;21.218;2023-03-21T10:25:43;10.63;;;6.53;;
78989;SDS011;68390;52.130;21.218;2023-03-21T10:28:14;9.18;;;6.40;;
78989;SDS011;68390;52.130;21.218;2023-03-21T10:30:47;9.77;;;6.65;;
78989;SDS011;68390;52.130;21.218;2023-03-21T10:33:21;9.18;;;6.50;;
78989;SDS011;68390;52.130;21.218;2023-03-21T10:35:50;8.50;;;5.97;;
78989;SDS011;68390;52.130;21.218;2023-03-21T10:38:19;8.70;;;6.28;;
78989;SDS011;68390;52.130;21.218;2023-03-21T10:40:47;9.13;;;6.10;;
78989;SDS011;68390;52.130;21.218;2023-03-21T10:45:54;7.65;;;5.57;;
78989;SDS011;68390;52.130;21.218;2023-03-21T10:48:20;7.82;;;5.75;;
78989;SDS011;68390;52.130;21.218;2023-03-21T10:50:48;8.15;;;5.97;;
78989;SDS011;68390;52.130;21.218;2023-03-21T10:53:28;9.82;;;6.28;;
78989;SDS011;68390;52.130;21.218;2023-03-21T10:56:00;12.55;;;6.82;;
78989;SDS011;68390;52.130;21.218;2023-03-21T10:58:30;10.38;;;5.95;;
78989;SDS011;68390;52.130;21.218;2023-03-21T11:01:04;8.73;;;6.45;;
78989;SDS011;68390;52.130;21.218;2023-03-21T11:03:34;9.85;;;6.18;;
78989;SDS011;68390;52.130;21.218;2023-03-21T11:06:04;8.85;;;5.85;;
78989;SDS011;68390;52.130;21.218;2023-03-21T11:08:39;9.40;;;5.93;;
78989;SDS011;68390;52.130;21.218;2023-03-21T11:11:09;10.68;;;6.28;;
78989;SDS011;68390;52.130;21.218;2023-03-21T11:13:43;8.82;;;6.57;;
78989;SDS011;68390;52.130;21.218;2023-03-21T11:16:10;9.77;;;6.38;;
78989;SDS011;68390;52.130;21.218;2023-03-21T11:18:43;8.88;;;6.47;;
78989;SDS011;68390;52.130;21.218;2023-03-21T11:21:13;9.15;;;6.43;;
78989;SDS011;68390;52.130;21.218;2023-03-21T11:23:43;6.50;;;4.57;;
78989;SDS011;68390;52.130;21.218;2023-03-21T11:26:18;6.15;;;4.05;;
78989;SDS011;68390;52.130;21.218;2023-03-21T11:28:50;5.63;;;4.10;;
78989;SDS011;68390;52.130;21.218;2023-03-21T11:31:16;6.25;;;4.00;;
78989;SDS011;68390;52.130;21.218;2023-03-21T11:33:51;5.38;;;4.03;;
78989;SDS011;68390;52.130;21.218;2023-03-21T11:38:56;6.95;;;4.50;;
78989;SDS011;68390;52.130;21.218;2023-03-21T11:41:24;8.63;;;4.50;;
78989;SDS011;68390;52.130;21.218;2023-03-21T11:43:53;5.78;;;4.28;;
78989;SDS011;68390;52.130;21.218;2023-03-21T11:46:22;4.00;;;2.90;;
78989;SDS011;68390;52.130;21.218;2023-03-21T11:48:50;3.80;;;3.15;;
78989;SDS011;68390;52.130;21.218;2023-03-21T11:51:35;6.43;;;4.68;;
78989;SDS011;68390;52.130;21.218;2023-03-21T12:04:57;5.70;;;4.00;;
78989;SDS011;68390;52.130;21.218;2023-03-21T12:10:10;5.65;;;4.03;;
78989;SDS011;68390;52.130;21.218;2023-03-21T12:15:42;7.78;;;4.70;;
78989;SDS011;68390;52.130;21.218;2023-03-21T12:23:26;6.68;;;4.07;;
78989;SDS011;68390;52.130;21.218;2023-03-21T12:26:11;5.72;;;4.45;;
78989;SDS011;68390;52.130;21.218;2023-03-21T12:31:56;7.40;;;5.03;;
78989;SDS011;68390;52.130;21.218;2023-03-21T12:34:49;5.93;;;4.80;;
78989;SDS011;68390;52.130;21.218;2023-03-21T12:39:59;6.22;;;4.65;;
78989;SDS011;68390;52.130;21.218;2023-03-21T12:45:26;5.93;;;4.43;;
78989;SDS011;68390;52.130;21.218;2023-03-21T12:48:00;6.00;;;4.78;;
78989;SDS011;68390;52.130;21.218;2023-03-21T12:50:36;6.13;;;4.68;;
78989;SDS011;68390;52.130;21.218;2023-03-21T12:53:13;6.07;;;4.65;;
78989;SDS011;68390;52.130;21.218;2023-03-21T12:55:42;5.72;;;4.00;;
78989;SDS011;68390;52.130;21.218;2023-03-21T12:58:10;8.77;;;5.47;;
78989;SDS011;68390;52.130;21.218;2023-03-21T13:08:18;7.78;;;4.95;;
78989;SDS011;68390;52.130;21.218;2023-03-21T13:10:46;6.35;;;4.70;;
78989;SDS011;68390;52.130;21.218;2023-03-21T13:13:22;6.57;;;4.60;;
78989;SDS011;68390;52.130;21.218;2023-03-21T13:27:17;7.38;;;5.90;;
78989;SDS011;68390;52.130;21.218;2023-03-21T13:29:49;7.40;;;4.97;;
78989;SDS011;68390;52.130;21.218;2023-03-21T13:34:44;7.78;;;5.55;;
78989;SDS011;68390;52.130;21.218;2023-03-21T13:37:17;8.93;;;5.53;;
78989;SDS011;68390;52.130;21.218;2023-03-21T13:39:44;7.38;;;5.65;;
78989;SDS011;68390;52.130;21.218;2023-03-21T13:42:11;7.10;;;5.40;;
78989;SDS011;68390;52.130;21.218;2023-03-21T13:44:48;8.45;;;5.80;;
78989;SDS011;68390;52.130;21.218;2023-03-21T13:47:29;7.95;;;5.10;;
78989;SDS011;68390;52.130;21.218;2023-03-21T13:53:08;7.97;;;5.47;;
78989;SDS011;68390;52.130;21.218;2023-03-21T13:55:39;13.57;;;8.80;;
78989;SDS011;68390;52.130;21.218;2023-03-21T14:01:03;5.85;;;4.88;;
78989;SDS011;68390;52.130;21.218;2023-03-21T14:03:48;12.02;;;7.68;;
78989;SDS011;68390;52.130;21.218;2023-03-21T14:06:20;10.65;;;7.28;;
78989;SDS011;68390;52.130;21.218;2023-03-21T14:08:47;11.57;;;7.63;;
78989;SDS011;68390;52.130;21.218;2023-03-21T14:11:16;10.40;;;6.15;;
78989;SDS011;68390;52.130;21.218;2023-03-21T14:13:44;7.50;;;6.03;;
78989;SDS011;68390;52.130;21.218;2023-03-21T14:16:14;7.72;;;5.00;;
78989;SDS011;68390;52.130;21.218;2023-03-21T14:18:45;6.93;;;4.80;;
78989;SDS011;68390;52.130;21.218;2023-03-21T14:21:24;6.75;;;5.13;;
78989;SDS011;68390;52.130;21.218;2023-03-21T14:24:06;7.03;;;5.03;;
78989;SDS011;68390;52.130;21.218;2023-03-21T14:26:39;5.35;;;4.40;;
78989;SDS011;68390;52.130;21.218;2023-03-21T14:29:07;6.30;;;4.75;;
78989;SDS011;68390;52.130;21.218;2023-03-21T14:31:38;6.47;;;4.68;;
78989;SDS011;68390;52.130;21.218;2023-03-21T14:34:03;6.20;;;4.28;;
78989;SDS011;68390;52.130;21.218;2023-03-21T14:36:31;7.40;;;4.80;;
78989;SDS011;68390;52.130;21.218;2023-03-21T14:39:04;6.30;;;4.75;;
78989;SDS011;68390;52.130;21.218;2023-03-21T14:41:45;6.80;;;4.25;;
78989;SDS011;68390;52.130;21.218;2023-03-21T14:46:49;5.75;;;4.07;;
78989;SDS011;68390;52.130;21.218;2023-03-21T14:49:20;5.80;;;4.13;;
78989;SDS011;68390;52.130;21.218;2023-03-21T14:51:49;5.50;;;4.18;;
78989;SDS011;68390;52.130;21.218;2023-03-21T14:54:15;6.28;;;4.07;;
78989;SDS011;68390;52.130;21.218;2023-03-21T14:56:43;4.63;;;3.35;;
78989;SDS011;68390;52.130;21.218;2023-03-21T14:59:12;5.53;;;3.75;;
78989;SDS011;68390;52.130;21.218;2023-03-21T15:01:41;6.65;;;4.25;;
78989;SDS011;68390;52.130;21.218;2023-03-21T15:04:09;5.47;;;4.30;;
78989;SDS011;68390;52.130;21.218;2023-03-21T15:09:51;9.13;;;5.25;;
78989;SDS011;68390;52.130;21.218;2023-03-21T15:12:18;6.05;;;4.07;;
78989;SDS011;68390;52.130;21.218;2023-03-21T15:14:44;8.25;;;4.50;;
78989;SDS011;68390;52.130;21.218;2023-03-21T15:17:09;6.65;;;5.43;;
78989;SDS011;68390;52.130;21.218;2023-03-21T15:19:36;8.63;;;5.95;;
78989;SDS011;68390;52.130;21.218;2023-03-21T15:22:08;13.25;;;7.40;;
78989;SDS011;68390;52.130;21.218;2023-03-21T15:24:41;5.65;;;4.40;;
78989;SDS011;68390;52.130;21.218;2023-03-21T15:27:12;6.70;;;4.88;;
78989;SDS011;68390;52.130;21.218;2023-03-21T15:29:41;5.97;;;4.00;;
78989;SDS011;68390;52.130;21.218;2023-03-21T15:32:12;6.05;;;4.22;;
78989;SDS011;68390;52.130;21.218;2023-03-21T15:34:41;4.22;;;3.35;;
78989;SDS011;68390;52.130;21.218;2023-03-21T15:37:08;6.63;;;4.75;;
78989;SDS011;68390;52.130;21.218;2023-03-21T15:39:41;5.43;;;3.85;;
78989;SDS011;68390;52.130;21.218;2023-03-21T15:42:26;11.10;;;8.02;;
78989;SDS011;68390;52.130;21.218;2023-03-21T15:44:57;8.27;;;4.38;;
78989;SDS011;68390;52.130;21.218;2023-03-21T15:47:48;13.15;;;8.57;;
78989;SDS011;68390;52.130;21.218;2023-03-21T15:50:32;7.47;;;5.22;;
78989;SDS011;68390;52.130;21.218;2023-03-21T15:53:02;6.57;;;5.03;;
78989;SDS011;68390;52.130;21.218;2023-03-21T15:55:33;6.72;;;4.65;;
78989;SDS011;68390;52.130;21.218;2023-03-21T15:58:21;8.32;;;4.95;;
78989;SDS011;68390;52.130;21.218;2023-03-21T16:00:53;10.73;;;7.30;;
78989;SDS011;68390;52.130;21.218;2023-03-21T16:03:28;10.07;;;6.70;;
78989;SDS011;68390;52.130;21.218;2023-03-21T16:08:34;12.23;;;7.97;;
78989;SDS011;68390;52.130;21.218;2023-03-21T16:11:25;10.70;;;7.10;;
78989;SDS011;68390;52.130;21.218;2023-03-21T16:13:52;8.73;;;6.20;;
78989;SDS011;68390;52.130;21.218;2023-03-21T16:16:22;10.25;;;6.68;;
78989;SDS011;68390;52.130;21.218;2023-03-21T16:18:50;8.85;;;6.65;;